sensor_id;sensor_type;location;lat;lon;timestamp;pressure;altitude;pressure_sealevel;temperature;humidity
8280;BME280;8335;42.646;23.380;2022-07-29T00:00:49;94578.41;;;19.31;99.90
8280;BME280;8335;42.646;23.380;2022-07-29T00:03:16;94585.19;;;19.32;99.76
8280;BME280;8335;42.646;23.380;2022-07-29T00:05:44;94585.97;;;19.22;100.00
8280;BME280;8335;42.646;23.380;2022-07-29T00:08:11;94589.63;;;19.20;100.00
8280;BME280;8335;42.646;23.380;2022-07-29T00:10:37;94597.06;;;19.13;100.00
8280;BME280;8335;42.646;23.380;2022-07-29T00:13:04;94603.03;;;19.14;100.00
8280;BME280;8335;42.646;23.380;2022-07-29T00:15:31;94606.19;;;19.17;100.00
8280;BME280;8335;42.646;23.380;2022-07-29T00:17:58;94607.16;;;19.16;100.00
8280;BME280;8335;42.646;23.380;2022-07-29T00:20:25;94606.06;;;19.19;100.00
8280;BME280;8335;42.646;23.380;2022-07-29T00:22:53;94604.72;;;19.24;100.00
8280;BME280;8335;42.646;23.380;2022-07-29T00:25:20;94610.34;;;19.30;99.77
8280;BME280;8335;42.646;23.380;2022-07-29T00:27:46;94615.38;;;19.31;99.39
8280;BME280;8335;42.646;23.380;2022-07-29T00:30:13;94612.78;;;19.31;99.47
8280;BME280;8335;42.646;23.380;2022-07-29T00:32:40;94602.31;;;19.33;99.95
8280;BME280;8335;42.646;23.380;2022-07-29T00:35:07;94601.50;;;19.32;100.00
8280;BME280;8335;42.646;23.380;2022-07-29T00:37:53;94590.09;;;19.35;100.00
8280;BME280;8335;42.646;23.380;2022-07-29T00:40:20;94588.91;;;19.39;100.00
8280;BME280;8335;42.646;23.380;2022-07-29T00:42:48;94584.72;;;19.47;99.70
8280;BME280;8335;42.646;23.380;2022-07-29T00:45:15;94589.22;;;19.55;99.36
8280;BME280;8335;42.646;23.380;2022-07-29T00:47:42;94594.03;;;19.60;99.38
8280;BME280;8335;42.646;23.380;2022-07-29T00:50:11;94595.66;;;19.61;99.48
8280;BME280;8335;42.646;23.380;2022-07-29T00:52:39;94602.22;;;19.65;99.17
8280;BME280;8335;42.646;23.380;2022-07-29T00:55:10;94600.31;;;19.67;99.56
8280;BME280;8335;42.646;23.380;2022-07-29T00:57:38;94600.75;;;19.72;99.26
8280;BME280;8335;42.646;23.380;2022-07-29T01:00:07;94608.22;;;19.75;99.17
8280;BME280;8335;42.646;23.380;2022-07-29T01:02:34;94605.06;;;19.71;99.41
8280;BME280;8335;42.646;23.380;2022-07-29T01:05:02;94600.59;;;19.73;99.54
8280;BME280;8335;42.646;23.380;2022-07-29T01:07:30;94597.31;;;19.71;99.41
8280;BME280;8335;42.646;23.380;2022-07-29T01:09:58;94592.69;;;19.65;100.00
8280;BME280;8335;42.646;23.380;2022-07-29T01:12:29;94592.50;;;19.57;100.00
8280;BME280;8335;42.646;23.380;2022-07-29T01:14:58;94581.97;;;19.49;100.00
8280;BME280;8335;42.646;23.380;2022-07-29T01:17:27;94588.69;;;19.51;100.00
8280;BME280;8335;42.646;23.380;2022-07-29T01:20:00;94589.34;;;19.53;100.00
8280;BME280;8335;42.646;23.380;2022-07-29T01:22:53;94594.16;;;19.58;100.00
8280;BME280;8335;42.646;23.380;2022-07-29T01:25:38;94590.50;;;19.61;100.00
8280;BME280;8335;42.646;23.380;2022-07-29T01:28:34;94590.34;;;19.62;100.00
8280;BME280;8335;42.646;23.380;2022-07-29T01:31:05;94585.31;;;19.61;100.00
8280;BME280;8335;42.646;23.380;2022-07-29T01:33:38;94584.88;;;19.56;100.00
8280;BME280;8335;42.646;23.380;2022-07-29T01:36:28;94588.19;;;19.58;100.00
8280;BME280;8335;42.646;23.380;2022-07-29T01:39:04;94579.69;;;19.56;100.00
8280;BME280;8335;42.646;23.380;2022-07-29T01:41:32;94581.25;;;19.58;100.00
8280;BME280;8335;42.646;23.380;2022-07-29T01:44:12;94572.75;;;19.56;100.00
8280;BME280;8335;42.646;23.380;2022-07-29T01:46:44;94573.50;;;19.58;100.00
8280;BME280;8335;42.646;23.380;2022-07-29T01:49:18;94573.72;;;19.55;99.97
8280;BME280;8335;42.646;23.380;2022-07-29T01:51:49;94570.47;;;19.53;100.00
8280;BME280;8335;42.646;23.380;2022-07-29T01:54:20;94573.28;;;19.50;100.00
8280;BME280;8335;42.646;23.380;2022-07-29T01:56:49;94576.41;;;19.44;100.00
8280;BME280;8335;42.646;23.380;2022-07-29T01:59:20;94568.22;;;19.29;100.00
8280;BME280;8335;42.646;23.380;2022-07-29T02:01:50;94581.22;;;19.28;100.00
8280;BME280;8335;42.646;23.380;2022-07-29T02:04:19;94570.09;;;19.27;100.00
8280;BME280;8335;42.646;23.380;2022-07-29T02:06:48;94559.63;;;19.29;100.00
8280;BME280;8335;42.646;23.380;2022-07-29T02:09:16;94561.28;;;19.30;100.00
8280;BME280;8335;42.646;23.380;2022-07-29T02:11:48;94559.75;;;19.27;100.00
8280;BME280;8335;42.646;23.380;2022-07-29T02:14:20;94559.34;;;19.22;100.00
8280;BME280;8335;42.646;23.380;2022-07-29T02:16:50;94558.03;;;19.07;100.00
8280;BME280;8335;42.646;23.380;2022-07-29T02:19:20;94556.69;;;19.03;100.00
8280;BME280;8335;42.646;23.380;2022-07-29T02:21:48;94550.53;;;18.94;100.00
8280;BME280;8335;42.646;23.380;2022-07-29T02:24:17;94546.69;;;18.88;100.00
8280;BME280;8335;42.646;23.380;2022-07-29T02:26:45;94551.91;;;18.77;100.00
8280;BME280;8335;42.646;23.380;2022-07-29T02:29:13;94558.53;;;18.70;100.00
8280;BME280;8335;42.646;23.380;2022-07-29T02:31:44;94553.97;;;18.62;100.00
8280;BME280;8335;42.646;23.380;2022-07-29T02:34:12;94557.22;;;18.64;100.00
8280;BME280;8335;42.646;23.380;2022-07-29T02:36:43;94549.28;;;18.67;100.00
8280;BME280;8335;42.646;23.380;2022-07-29T02:39:12;94551.50;;;18.72;100.00
8280;BME280;8335;42.646;23.380;2022-07-29T02:41:42;94544.03;;;18.79;100.00
8280;BME280;8335;42.646;23.380;2022-07-29T02:44:11;94553.03;;;18.84;100.00
8280;BME280;8335;42.646;23.380;2022-07-29T02:46:46;94534.59;;;18.89;100.00
8280;BME280;8335;42.646;23.380;2022-07-29T02:49:17;94533.72;;;18.79;100.00
8280;BME280;8335;42.646;23.380;2022-07-29T02:51:47;94531.22;;;18.67;100.00
8280;BME280;8335;42.646;23.380;2022-07-29T02:54:22;94532.19;;;18.66;100.00
8280;BME280;8335;42.646;23.380;2022-07-29T02:56:51;94540.22;;;18.73;100.00
8280;BME280;8335;42.646;23.380;2022-07-29T02:59:23;94532.50;;;18.73;100.00
8280;BME280;8335;42.646;23.380;2022-07-29T03:01:54;94538.19;;;18.77;100.00
8280;BME280;8335;42.646;23.380;2022-07-29T03:04:24;94543.63;;;18.74;100.00
8280;BME280;8335;42.646;23.380;2022-07-29T03:06:55;94548.28;;;18.80;100.00
8280;BME280;8335;42.646;23.380;2022-07-29T03:09:25;94536.75;;;18.84;100.00
8280;BME280;8335;42.646;23.380;2022-07-29T03:11:53;94533.22;;;18.85;100.00
8280;BME280;8335;42.646;23.380;2022-07-29T03:14:21;94528.75;;;18.87;100.00
8280;BME280;8335;42.646;23.380;2022-07-29T03:16:48;94530.41;;;18.88;100.00
8280;BME280;8335;42.646;23.380;2022-07-29T03:19:18;94538.94;;;18.88;100.00
8280;BME280;8335;42.646;23.380;2022-07-29T03:21:45;94542.59;;;18.86;100.00
8280;BME280;8335;42.646;23.380;2022-07-29T03:24:25;94545.16;;;18.86;100.00
8280;BME280;8335;42.646;23.380;2022-07-29T03:26:51;94539.19;;;18.85;100.00
8280;BME280;8335;42.646;23.380;2022-07-29T03:29:18;94542.22;;;18.90;100.00
8280;BME280;8335;42.646;23.380;2022-07-29T03:31:45;94543.47;;;18.96;100.00
8280;BME280;8335;42.646;23.380;2022-07-29T03:34:12;94536.28;;;19.00;100.00
8280;BME280;8335;42.646;23.380;2022-07-29T03:36:40;94537.38;;;19.07;100.00
8280;BME280;8335;42.646;23.380;2022-07-29T03:39:09;94538.94;;;19.19;100.00
8280;BME280;8335;42.646;23.380;2022-07-29T03:41:38;94546.03;;;19.27;100.00
8280;BME280;8335;42.646;23.380;2022-07-29T03:44:07;94545.09;;;19.28;100.00
8280;BME280;8335;42.646;23.380;2022-07-29T03:46:37;94544.56;;;19.34;100.00
8280;BME280;8335;42.646;23.380;2022-07-29T03:49:05;94544.19;;;19.38;100.00
8280;BME280;8335;42.646;23.380;2022-07-29T03:51:33;94549.78;;;19.43;100.00
8280;BME280;8335;42.646;23.380;2022-07-29T03:54:02;94557.25;;;19.56;100.00
8280;BME280;8335;42.646;23.380;2022-07-29T03:56:32;94554.34;;;19.70;100.00
8280;BME280;8335;42.646;23.380;2022-07-29T03:59:02;94561.47;;;19.88;100.00
8280;BME280;8335;42.646;23.380;2022-07-29T04:01:29;94560.78;;;19.95;100.00
8280;BME280;8335;42.646;23.380;2022-07-29T04:03:59;94561.50;;;20.17;99.28
8280;BME280;8335;42.646;23.380;2022-07-29T04:06:26;94559.97;;;20.33;96.74
8280;BME280;8335;42.646;23.380;2022-07-29T04:08:53;94566.84;;;20.44;96.14
8280;BME280;8335;42.646;23.380;2022-07-29T04:11:21;94567.34;;;20.48;96.25
8280;BME280;8335;42.646;23.380;2022-07-29T04:13:48;94564.63;;;20.69;94.85
8280;BME280;8335;42.646;23.380;2022-07-29T04:16:14;94563.72;;;20.97;93.29
8280;BME280;8335;42.646;23.380;2022-07-29T04:18:41;94561.09;;;21.54;90.70
8280;BME280;8335;42.646;23.380;2022-07-29T04:21:08;94567.84;;;22.37;87.81
8280;BME280;8335;42.646;23.380;2022-07-29T04:23:34;94562.84;;;23.05;83.20
8280;BME280;8335;42.646;23.380;2022-07-29T04:26:01;94574.72;;;23.42;81.12
8280;BME280;8335;42.646;23.380;2022-07-29T04:28:29;94571.88;;;23.27;80.01
8280;BME280;8335;42.646;23.380;2022-07-29T04:30:56;94566.91;;;22.64;82.52
8280;BME280;8335;42.646;23.380;2022-07-29T04:33:22;94563.53;;;22.10;85.17
8280;BME280;8335;42.646;23.380;2022-07-29T04:35:49;94565.44;;;22.26;85.43
8280;BME280;8335;42.646;23.380;2022-07-29T04:38:16;94570.88;;;22.76;82.95
8280;BME280;8335;42.646;23.380;2022-07-29T04:40:43;94573.38;;;23.30;80.32
8280;BME280;8335;42.646;23.380;2022-07-29T04:43:10;94578.16;;;23.85;78.01
8280;BME280;8335;42.646;23.380;2022-07-29T04:45:38;94585.38;;;24.07;77.43
8280;BME280;8335;42.646;23.380;2022-07-29T04:48:05;94595.75;;;24.66;74.17
8280;BME280;8335;42.646;23.380;2022-07-29T04:50:32;94589.06;;;25.76;69.59
8280;BME280;8335;42.646;23.380;2022-07-29T04:52:59;94601.38;;;26.98;65.56
8280;BME280;8335;42.646;23.380;2022-07-29T04:55:25;94600.81;;;27.55;62.98
8280;BME280;8335;42.646;23.380;2022-07-29T04:57:52;94604.81;;;28.68;58.99
8280;BME280;8335;42.646;23.380;2022-07-29T05:00:19;94604.56;;;29.05;57.12
8280;BME280;8335;42.646;23.380;2022-07-29T05:02:47;94607.97;;;29.34;55.85
8280;BME280;8335;42.646;23.380;2022-07-29T05:05:13;94617.56;;;30.11;52.79
8280;BME280;8335;42.646;23.380;2022-07-29T05:07:40;94624.06;;;31.03;50.32
8280;BME280;8335;42.646;23.380;2022-07-29T05:10:08;94619.78;;;31.61;47.88
8280;BME280;8335;42.646;23.380;2022-07-29T05:12:35;94623.75;;;32.55;45.22
8280;BME280;8335;42.646;23.380;2022-07-29T05:15:02;94628.44;;;33.16;43.55
8280;BME280;8335;42.646;23.380;2022-07-29T05:17:29;94622.19;;;33.60;42.03
8280;BME280;8335;42.646;23.380;2022-07-29T05:19:57;94637.84;;;33.99;41.48
8280;BME280;8335;42.646;23.380;2022-07-29T05:22:24;94629.97;;;34.29;40.51
8280;BME280;8335;42.646;23.380;2022-07-29T05:24:50;94639.47;;;34.18;41.01
8280;BME280;8335;42.646;23.380;2022-07-29T05:27:17;94636.09;;;34.11;40.73
8280;BME280;8335;42.646;23.380;2022-07-29T05:29:44;94639.75;;;34.46;39.81
8280;BME280;8335;42.646;23.380;2022-07-29T05:32:11;94646.25;;;34.92;38.92
8280;BME280;8335;42.646;23.380;2022-07-29T05:34:38;94643.00;;;35.32;38.07
8280;BME280;8335;42.646;23.380;2022-07-29T05:37:06;94641.31;;;35.49;37.46
8280;BME280;8335;42.646;23.380;2022-07-29T05:39:32;94639.47;;;35.50;37.71
8280;BME280;8335;42.646;23.380;2022-07-29T05:41:59;94636.69;;;35.56;36.17
8280;BME280;8335;42.646;23.380;2022-07-29T05:44:26;94634.81;;;35.10;37.30
8280;BME280;8335;42.646;23.380;2022-07-29T05:46:52;94641.91;;;34.98;36.77
8280;BME280;8335;42.646;23.380;2022-07-29T05:49:19;94648.50;;;34.47;37.68
8280;BME280;8335;42.646;23.380;2022-07-29T05:51:46;94644.75;;;33.56;39.67
8280;BME280;8335;42.646;23.380;2022-07-29T05:54:15;94640.88;;;33.59;40.22
8280;BME280;8335;42.646;23.380;2022-07-29T05:56:42;94641.00;;;33.14;40.22
8280;BME280;8335;42.646;23.380;2022-07-29T05:59:08;94645.72;;;33.62;39.76
8280;BME280;8335;42.646;23.380;2022-07-29T06:01:35;94646.28;;;34.26;39.17
8280;BME280;8335;42.646;23.380;2022-07-29T06:04:04;94641.75;;;34.51;38.76
8280;BME280;8335;42.646;23.380;2022-07-29T06:06:31;94646.63;;;34.66;38.71
8280;BME280;8335;42.646;23.380;2022-07-29T06:08:58;94647.91;;;35.05;38.58
8280;BME280;8335;42.646;23.380;2022-07-29T06:11:26;94650.91;;;34.79;37.93
8280;BME280;8335;42.646;23.380;2022-07-29T06:13:53;94652.81;;;34.41;39.48
8280;BME280;8335;42.646;23.380;2022-07-29T06:16:20;94650.69;;;34.32;39.09
8280;BME280;8335;42.646;23.380;2022-07-29T06:18:47;94652.97;;;34.10;39.61
8280;BME280;8335;42.646;23.380;2022-07-29T06:21:13;94647.38;;;34.55;39.55
8280;BME280;8335;42.646;23.380;2022-07-29T06:23:40;94651.38;;;34.75;39.75
8280;BME280;8335;42.646;23.380;2022-07-29T06:26:07;94647.09;;;35.58;39.12
8280;BME280;8335;42.646;23.380;2022-07-29T06:28:35;94653.66;;;35.67;37.57
8280;BME280;8335;42.646;23.380;2022-07-29T06:31:02;94659.75;;;35.68;38.01
8280;BME280;8335;42.646;23.380;2022-07-29T06:33:29;94648.63;;;35.24;37.57
8280;BME280;8335;42.646;23.380;2022-07-29T06:35:56;94652.75;;;35.20;38.35
8280;BME280;8335;42.646;23.380;2022-07-29T06:38:22;94652.09;;;35.36;36.89
8280;BME280;8335;42.646;23.380;2022-07-29T06:40:49;94648.69;;;35.59;36.84
8280;BME280;8335;42.646;23.380;2022-07-29T06:43:30;94651.22;;;35.77;37.06
8280;BME280;8335;42.646;23.380;2022-07-29T06:46:01;94648.78;;;36.11;36.66
8280;BME280;8335;42.646;23.380;2022-07-29T06:48:29;94650.94;;;36.26;35.88
8280;BME280;8335;42.646;23.380;2022-07-29T06:50:56;94646.50;;;35.91;35.78
8280;BME280;8335;42.646;23.380;2022-07-29T06:53:23;94639.00;;;36.11;37.04
8280;BME280;8335;42.646;23.380;2022-07-29T06:55:50;94644.44;;;35.58;36.79
8280;BME280;8335;42.646;23.380;2022-07-29T06:58:17;94645.41;;;35.34;37.80
8280;BME280;8335;42.646;23.380;2022-07-29T07:00:46;94640.22;;;34.85;37.43
8280;BME280;8335;42.646;23.380;2022-07-29T07:03:14;94635.41;;;35.36;38.02
8280;BME280;8335;42.646;23.380;2022-07-29T07:05:41;94640.03;;;35.64;37.60
8280;BME280;8335;42.646;23.380;2022-07-29T07:08:08;94637.75;;;35.67;35.94
8280;BME280;8335;42.646;23.380;2022-07-29T07:10:35;94636.34;;;35.29;38.32
8280;BME280;8335;42.646;23.380;2022-07-29T07:13:02;94635.31;;;35.30;35.73
8280;BME280;8335;42.646;23.380;2022-07-29T07:15:28;94647.66;;;35.07;36.55
8280;BME280;8335;42.646;23.380;2022-07-29T07:17:55;94640.16;;;34.62;38.30
8280;BME280;8335;42.646;23.380;2022-07-29T07:20:24;94636.50;;;33.89;38.39
8280;BME280;8335;42.646;23.380;2022-07-29T07:22:51;94639.72;;;33.73;38.71
8280;BME280;8335;42.646;23.380;2022-07-29T07:25:18;94638.44;;;33.57;38.82
8280;BME280;8335;42.646;23.380;2022-07-29T07:27:45;94632.69;;;33.42;40.21
8280;BME280;8335;42.646;23.380;2022-07-29T07:30:13;94626.69;;;33.28;39.63
8280;BME280;8335;42.646;23.380;2022-07-29T07:32:40;94620.13;;;33.37;40.36
8280;BME280;8335;42.646;23.380;2022-07-29T07:35:08;94630.47;;;33.82;39.66
8280;BME280;8335;42.646;23.380;2022-07-29T07:37:37;94639.84;;;33.60;38.94
8280;BME280;8335;42.646;23.380;2022-07-29T07:40:07;94622.34;;;33.16;40.28
8280;BME280;8335;42.646;23.380;2022-07-29T07:42:34;94620.53;;;32.46;40.36
8280;BME280;8335;42.646;23.380;2022-07-29T07:45:01;94619.19;;;32.37;41.20
8280;BME280;8335;42.646;23.380;2022-07-29T07:47:27;94618.13;;;32.76;41.17
8280;BME280;8335;42.646;23.380;2022-07-29T07:49:54;94619.00;;;33.02;40.33
8280;BME280;8335;42.646;23.380;2022-07-29T07:52:21;94623.13;;;32.59;39.97
8280;BME280;8335;42.646;23.380;2022-07-29T07:54:50;94618.75;;;33.10;40.36
8280;BME280;8335;42.646;23.380;2022-07-29T07:57:16;94621.22;;;33.30;39.30
8280;BME280;8335;42.646;23.380;2022-07-29T07:59:43;94621.09;;;33.86;39.82
8280;BME280;8335;42.646;23.380;2022-07-29T08:02:10;94628.66;;;34.19;37.14
8280;BME280;8335;42.646;23.380;2022-07-29T08:04:37;94626.13;;;33.94;36.92
8280;BME280;8335;42.646;23.380;2022-07-29T08:07:07;94619.84;;;33.89;37.55
8280;BME280;8335;42.646;23.380;2022-07-29T08:09:35;94621.66;;;34.62;36.96
8280;BME280;8335;42.646;23.380;2022-07-29T08:12:04;94632.47;;;34.72;35.37
8280;BME280;8335;42.646;23.380;2022-07-29T08:14:31;94632.09;;;34.38;36.00
8280;BME280;8335;42.646;23.380;2022-07-29T08:16:59;94620.09;;;34.06;36.22
8280;BME280;8335;42.646;23.380;2022-07-29T08:19:25;94624.13;;;34.08;36.20
8280;BME280;8335;42.646;23.380;2022-07-29T08:21:52;94625.59;;;34.04;36.94
8280;BME280;8335;42.646;23.380;2022-07-29T08:24:22;94624.88;;;33.97;36.39
8280;BME280;8335;42.646;23.380;2022-07-29T08:27:07;94621.00;;;34.48;35.86
8280;BME280;8335;42.646;23.380;2022-07-29T08:29:35;94610.50;;;35.01;32.73
8280;BME280;8335;42.646;23.380;2022-07-29T08:32:02;94616.19;;;35.87;33.48
8280;BME280;8335;42.646;23.380;2022-07-29T08:34:29;94623.44;;;36.72;32.64
8280;BME280;8335;42.646;23.380;2022-07-29T08:36:56;94630.44;;;37.07;30.72
8280;BME280;8335;42.646;23.380;2022-07-29T08:39:23;94625.69;;;37.37;29.55
8280;BME280;8335;42.646;23.380;2022-07-29T08:41:51;94633.81;;;36.85;29.30
8280;BME280;8335;42.646;23.380;2022-07-29T08:44:20;94619.28;;;36.76;30.11
8280;BME280;8335;42.646;23.380;2022-07-29T08:46:48;94622.97;;;36.58;30.35
8280;BME280;8335;42.646;23.380;2022-07-29T08:49:15;94625.72;;;36.23;30.10
8280;BME280;8335;42.646;23.380;2022-07-29T08:51:43;94630.06;;;36.41;29.18
8280;BME280;8335;42.646;23.380;2022-07-29T08:54:11;94622.22;;;35.94;30.28
8280;BME280;8335;42.646;23.380;2022-07-29T08:56:42;94615.66;;;36.25;29.28
8280;BME280;8335;42.646;23.380;2022-07-29T08:59:10;94618.22;;;36.60;30.46
8280;BME280;8335;42.646;23.380;2022-07-29T09:01:39;94613.66;;;37.18;29.39
8280;BME280;8335;42.646;23.380;2022-07-29T09:04:10;94619.69;;;36.68;28.74
8280;BME280;8335;42.646;23.380;2022-07-29T09:06:42;94614.69;;;37.00;29.01
8280;BME280;8335;42.646;23.380;2022-07-29T09:09:09;94617.78;;;37.98;28.79
8280;BME280;8335;42.646;23.380;2022-07-29T09:11:35;94616.59;;;37.72;27.89
8280;BME280;8335;42.646;23.380;2022-07-29T09:14:02;94609.97;;;37.36;28.50
8280;BME280;8335;42.646;23.380;2022-07-29T09:16:46;94613.66;;;36.73;29.49
8280;BME280;8335;42.646;23.380;2022-07-29T09:19:25;94606.88;;;35.96;30.20
8280;BME280;8335;42.646;23.380;2022-07-29T09:25:15;94603.31;;;34.90;32.15
8280;BME280;8335;42.646;23.380;2022-07-29T09:28:05;94598.44;;;33.97;33.58
8280;BME280;8335;42.646;23.380;2022-07-29T09:30:32;94596.22;;;33.32;34.48
8280;BME280;8335;42.646;23.380;2022-07-29T09:33:01;94588.56;;;32.99;36.34
8280;BME280;8335;42.646;23.380;2022-07-29T09:35:29;94590.59;;;32.27;37.07
8280;BME280;8335;42.646;23.380;2022-07-29T09:37:56;94584.47;;;32.72;36.28
8280;BME280;8335;42.646;23.380;2022-07-29T09:40:24;94588.66;;;33.36;35.17
8280;BME280;8335;42.646;23.380;2022-07-29T09:42:52;94591.16;;;33.74;34.25
8280;BME280;8335;42.646;23.380;2022-07-29T09:45:32;94597.75;;;34.20;34.33
8280;BME280;8335;42.646;23.380;2022-07-29T09:48:13;94588.78;;;35.11;33.18
8280;BME280;8335;42.646;23.380;2022-07-29T09:50:41;94589.22;;;36.02;31.74
8280;BME280;8335;42.646;23.380;2022-07-29T09:53:09;94587.06;;;36.39;30.29
8280;BME280;8335;42.646;23.380;2022-07-29T09:55:46;94593.84;;;35.95;30.81
8280;BME280;8335;42.646;23.380;2022-07-29T09:58:15;94582.22;;;35.37;32.79
8280;BME280;8335;42.646;23.380;2022-07-29T10:00:43;94579.25;;;35.45;32.26
8280;BME280;8335;42.646;23.380;2022-07-29T10:03:12;94578.44;;;36.20;31.09
8280;BME280;8335;42.646;23.380;2022-07-29T10:05:39;94577.28;;;36.56;30.65
8280;BME280;8335;42.646;23.380;2022-07-29T10:08:08;94576.31;;;36.46;30.67
8280;BME280;8335;42.646;23.380;2022-07-29T10:10:36;94572.41;;;36.36;31.18
8280;BME280;8335;42.646;23.380;2022-07-29T10:13:05;94568.13;;;37.09;30.20
8280;BME280;8335;42.646;23.380;2022-07-29T10:15:34;94571.53;;;37.60;29.74
8280;BME280;8335;42.646;23.380;2022-07-29T10:18:02;94568.97;;;37.32;29.84
8280;BME280;8335;42.646;23.380;2022-07-29T10:20:32;94559.88;;;37.28;29.60
8280;BME280;8335;42.646;23.380;2022-07-29T10:22:58;94560.84;;;37.22;30.03
8280;BME280;8335;42.646;23.380;2022-07-29T10:25:26;94559.38;;;36.63;30.81
8280;BME280;8335;42.646;23.380;2022-07-29T10:27:53;94564.41;;;36.65;31.78
8280;BME280;8335;42.646;23.380;2022-07-29T10:30:23;94545.38;;;36.85;30.29
8280;BME280;8335;42.646;23.380;2022-07-29T10:33:27;94550.81;;;37.07;30.34
8280;BME280;8335;42.646;23.380;2022-07-29T10:36:07;94551.06;;;37.39;29.13
8280;BME280;8335;42.646;23.380;2022-07-29T10:38:49;94550.16;;;37.33;28.34
8280;BME280;8335;42.646;23.380;2022-07-29T10:41:39;94549.78;;;36.34;29.12
8280;BME280;8335;42.646;23.380;2022-07-29T10:44:14;94533.44;;;36.37;29.42
8280;BME280;8335;42.646;23.380;2022-07-29T10:46:42;94540.72;;;36.30;29.69
8280;BME280;8335;42.646;23.380;2022-07-29T10:49:12;94543.41;;;35.90;30.43
8280;BME280;8335;42.646;23.380;2022-07-29T10:51:58;94534.19;;;35.80;30.34
8280;BME280;8335;42.646;23.380;2022-07-29T10:54:52;94529.38;;;36.06;30.49
8280;BME280;8335;42.646;23.380;2022-07-29T10:57:29;94526.91;;;35.76;29.97
8280;BME280;8335;42.646;23.380;2022-07-29T11:00:25;94516.72;;;35.33;30.14
8280;BME280;8335;42.646;23.380;2022-07-29T11:02:52;94515.53;;;34.82;31.29
8280;BME280;8335;42.646;23.380;2022-07-29T11:05:21;94508.28;;;34.77;32.54
8280;BME280;8335;42.646;23.380;2022-07-29T11:08:24;94510.66;;;34.55;32.06
8280;BME280;8335;42.646;23.380;2022-07-29T11:11:29;94507.81;;;33.97;32.50
8280;BME280;8335;42.646;23.380;2022-07-29T11:13:48;94515.25;;;33.51;34.32
8280;BME280;8335;42.646;23.380;2022-07-29T11:16:18;94503.94;;;33.62;35.06
8280;BME280;8335;42.646;23.380;2022-07-29T11:19:21;94506.88;;;33.73;34.17
8280;BME280;8335;42.646;23.380;2022-07-29T11:21:48;94507.00;;;33.78;33.06
8280;BME280;8335;42.646;23.380;2022-07-29T11:24:21;94498.94;;;33.54;33.64
8280;BME280;8335;42.646;23.380;2022-07-29T11:27:14;94489.13;;;33.61;33.70
8280;BME280;8335;42.646;23.380;2022-07-29T11:29:50;94496.50;;;33.34;34.59
8280;BME280;8335;42.646;23.380;2022-07-29T11:32:17;94479.59;;;33.42;34.36
8280;BME280;8335;42.646;23.380;2022-07-29T11:34:45;94500.69;;;33.42;33.10
8280;BME280;8335;42.646;23.380;2022-07-29T11:37:22;94495.97;;;33.26;33.47
8280;BME280;8335;42.646;23.380;2022-07-29T11:40:17;94478.75;;;33.05;34.53
8280;BME280;8335;42.646;23.380;2022-07-29T11:42:49;94474.69;;;32.77;34.14
8280;BME280;8335;42.646;23.380;2022-07-29T11:45:21;94484.88;;;32.74;34.70
8280;BME280;8335;42.646;23.380;2022-07-29T11:47:51;94476.22;;;32.92;34.29
8280;BME280;8335;42.646;23.380;2022-07-29T11:50:27;94477.03;;;32.92;33.97
8280;BME280;8335;42.646;23.380;2022-07-29T11:52:54;94479.66;;;32.92;33.91
8280;BME280;8335;42.646;23.380;2022-07-29T11:55:23;94482.75;;;33.07;34.09
8280;BME280;8335;42.646;23.380;2022-07-29T11:57:52;94480.44;;;33.18;33.57
8280;BME280;8335;42.646;23.380;2022-07-29T12:00:25;94480.22;;;33.19;33.41
8280;BME280;8335;42.646;23.380;2022-07-29T12:02:52;94481.03;;;33.01;32.66
8280;BME280;8335;42.646;23.380;2022-07-29T12:05:20;94470.16;;;32.91;33.50
8280;BME280;8335;42.646;23.380;2022-07-29T12:07:47;94468.41;;;33.22;33.86
8280;BME280;8335;42.646;23.380;2022-07-29T12:10:15;94469.09;;;33.54;33.23
8280;BME280;8335;42.646;23.380;2022-07-29T12:12:51;94468.44;;;33.58;33.03
8280;BME280;8335;42.646;23.380;2022-07-29T12:15:51;94468.28;;;33.53;33.72
8280;BME280;8335;42.646;23.380;2022-07-29T12:18:35;94467.78;;;33.45;32.88
8280;BME280;8335;42.646;23.380;2022-07-29T12:21:03;94464.09;;;33.27;33.11
8280;BME280;8335;42.646;23.380;2022-07-29T12:23:30;94469.09;;;33.17;32.65
8280;BME280;8335;42.646;23.380;2022-07-29T12:25:57;94470.94;;;32.92;33.58
8280;BME280;8335;42.646;23.380;2022-07-29T12:28:26;94481.44;;;32.73;32.63
8280;BME280;8335;42.646;23.380;2022-07-29T12:30:53;94477.72;;;32.56;32.99
8280;BME280;8335;42.646;23.380;2022-07-29T12:33:21;94471.59;;;32.37;33.41
8280;BME280;8335;42.646;23.380;2022-07-29T12:35:51;94465.94;;;32.34;33.59
8280;BME280;8335;42.646;23.380;2022-07-29T12:38:18;94447.22;;;32.10;34.16
8280;BME280;8335;42.646;23.380;2022-07-29T12:40:46;94445.94;;;32.19;34.41
8280;BME280;8335;42.646;23.380;2022-07-29T12:43:15;94461.06;;;32.30;34.51
8280;BME280;8335;42.646;23.380;2022-07-29T12:45:45;94469.75;;;32.38;33.61
8280;BME280;8335;42.646;23.380;2022-07-29T12:48:12;94463.91;;;32.29;33.45
8280;BME280;8335;42.646;23.380;2022-07-29T12:50:56;94454.59;;;32.26;34.11
8280;BME280;8335;42.646;23.380;2022-07-29T12:53:23;94447.72;;;32.25;34.59
8280;BME280;8335;42.646;23.380;2022-07-29T12:55:51;94448.50;;;32.33;34.37
8280;BME280;8335;42.646;23.380;2022-07-29T12:58:33;94443.41;;;32.38;35.01
8280;BME280;8335;42.646;23.380;2022-07-29T13:01:07;94436.13;;;32.33;34.77
8280;BME280;8335;42.646;23.380;2022-07-29T13:03:49;94440.56;;;32.39;34.85
8280;BME280;8335;42.646;23.380;2022-07-29T13:06:34;94443.56;;;32.43;34.73
8280;BME280;8335;42.646;23.380;2022-07-29T13:09:10;94431.97;;;32.19;34.51
8280;BME280;8335;42.646;23.380;2022-07-29T13:11:39;94436.69;;;32.10;35.14
8280;BME280;8335;42.646;23.380;2022-07-29T13:14:07;94422.53;;;32.04;35.43
8280;BME280;8335;42.646;23.380;2022-07-29T13:19:17;94416.81;;;31.76;35.55
8280;BME280;8335;42.646;23.380;2022-07-29T13:21:45;94419.44;;;31.76;35.03
8280;BME280;8335;42.646;23.380;2022-07-29T13:24:11;94419.47;;;31.69;35.61
8280;BME280;8335;42.646;23.380;2022-07-29T13:26:40;94416.00;;;31.75;35.88
8280;BME280;8335;42.646;23.380;2022-07-29T13:29:07;94420.06;;;31.78;35.03